Time;durP1;ratioP1;P1;durP2;ratioP2;P2;SDS_P1;SDS_P2;PMS_P1;PMS_P2;Temp;Humidity;BMP_temperature;BMP_pressure;BME280_temperature;BME280_humidity;BME280_pressure;Samples;Min_cycle;Max_cycle;Signal;HPM_P1;HPM_P2
2023/03/02 00:00:33;;;;;;;22.37;17.00;;;;;;;6.91;100.00;100079.97;5053047;28;20263;-63
2023/03/02 00:03:00;;;;;;;26.70;17.47;;;;;;;6.98;100.00;100077.50;5053180;28;20266;-63
2023/03/02 00:05:28;;;;;;;30.83;17.17;;;;;;;6.98;100.00;100080.16;5053262;28;20196;-63
2023/03/02 00:07:56;;;;;;;28.90;18.37;;;;;;;7.03;100.00;100083.97;5052894;28;20274;-63
2023/03/02 00:10:24;;;;;;;26.57;17.10;;;;;;;7.06;100.00;100085.47;5053105;28;20274;-63
2023/03/02 00:12:52;;;;;;;31.40;17.27;;;;;;;7.05;100.00;100083.78;5052789;28;20192;-63
2023/03/02 00:15:18;;;;;;;23.83;17.77;;;;;;;7.02;100.00;100082.28;5053070;28;20196;-63
2023/03/02 00:17:45;;;;;;;31.97;18.17;;;;;;;6.75;100.00;100084.31;5060445;28;20545;-63
2023/03/02 00:20:12;;;;;;;32.37;18.50;;;;;;;6.89;100.00;100070.50;5054172;28;20200;-64
2023/03/02 00:22:41;;;;;;;25.47;17.87;;;;;;;6.88;100.00;100074.16;5052752;28;20251;-63
2023/03/02 00:25:09;;;;;;;22.23;16.87;;;;;;;6.83;100.00;100068.50;5052600;28;20208;-63
2023/03/02 00:27:37;;;;;;;36.63;17.87;;;;;;;6.95;100.00;100077.81;5062468;28;20610;-62
2023/03/02 00:30:04;;;;;;;26.10;18.53;;;;;;;7.05;100.00;100078.50;5072327;28;20760;-63
2023/03/02 00:32:30;;;;;;;27.33;17.93;;;;;;;6.99;100.00;100077.34;5072806;28;20280;-63
2023/03/02 00:34:57;;;;;;;25.47;17.53;;;;;;;6.98;100.00;100069.59;5072270;28;20199;-63
2023/03/02 00:37:25;;;;;;;22.53;17.40;;;;;;;6.98;100.00;100067.75;5064176;28;20192;-63
2023/03/02 00:39:51;;;;;;;24.93;17.33;;;;;;;7.07;100.00;100073.91;5052198;28;20850;-63
2023/03/02 00:42:18;;;;;;;21.70;16.63;;;;;;;7.14;100.00;100072.28;5052212;28;20664;-63
2023/03/02 00:44:46;;;;;;;21.30;16.43;;;;;;;7.12;100.00;100076.88;5052117;28;20625;-64
2023/03/02 00:47:13;;;;;;;25.43;17.13;;;;;;;7.08;100.00;100073.75;5052093;28;20741;-63
2023/03/02 00:49:40;;;;;;;20.50;14.83;;;;;;;7.03;100.00;100073.41;5051930;28;20224;-64
2023/03/02 00:52:07;;;;;;;18.80;14.40;;;;;;;6.86;100.00;100070.84;5052096;28;20734;-63
2023/03/02 00:54:33;;;;;;;19.80;14.07;;;;;;;6.80;100.00;100066.19;5052336;28;20215;-63
2023/03/02 00:57:00;;;;;;;16.10;13.17;;;;;;;6.69;100.00;100053.28;5051960;28;20188;-63
2023/03/02 00:59:29;;;;;;;18.73;13.03;;;;;;;6.75;100.00;100061.41;5052176;28;20584;-63
2023/03/02 01:01:58;;;;;;;19.37;13.83;;;;;;;6.75;100.00;100058.75;5051908;28;20193;-63
2023/03/02 01:04:28;;;;;;;20.87;13.40;;;;;;;6.80;99.86;100055.63;5051723;28;20729;-63
2023/03/02 01:06:55;;;;;;;14.77;12.70;;;;;;;6.81;99.25;100049.38;5051947;28;20200;-63
2023/03/02 01:09:22;;;;;;;15.50;12.23;;;;;;;6.81;98.77;100057.31;5052013;28;20198;-63
2023/03/02 01:11:49;;;;;;;14.90;13.30;;;;;;;6.74;99.63;100058.91;5051831;28;20619;-64
2023/03/02 01:14:15;;;;;;;20.87;13.63;;;;;;;6.73;99.87;100052.78;5052347;28;20242;-63
2023/03/02 01:16:42;;;;;;;18.60;12.57;;;;;;;6.80;99.21;100058.25;5062785;28;20571;-63
2023/03/02 01:19:10;;;;;;;17.93;12.33;;;;;;;6.88;99.60;100060.94;5071578;28;20196;-63
2023/03/02 01:21:37;;;;;;;17.63;12.70;;;;;;;6.95;99.22;100054.03;5072154;28;20203;-63
2023/03/02 01:24:04;;;;;;;19.47;13.30;;;;;;;6.94;98.44;100053.22;5071875;28;20255;-63
2023/03/02 01:26:31;;;;;;;14.97;12.63;;;;;;;6.79;98.10;100053.97;5059909;28;20196;-63
2023/03/02 01:28:58;;;;;;;15.13;12.43;;;;;;;6.87;98.40;100056.66;5051881;28;20192;-63
2023/03/02 01:31:26;;;;;;;19.27;13.17;;;;;;;6.85;98.29;100055.97;5051918;28;20220;-63
2023/03/02 01:33:53;;;;;;;17.27;12.33;;;;;;;6.79;98.89;100054.81;5051533;28;20557;-62
2023/03/02 01:36:21;;;;;;;14.47;12.17;;;;;;;6.85;98.87;100059.44;5064039;28;20203;-63
2023/03/02 01:38:48;;;;;;;14.90;12.17;;;;;;;6.87;98.18;100051.38;5076031;28;20196;-63
2023/03/02 01:41:15;;;;;;;15.60;12.23;;;;;;;6.93;98.83;100035.72;5075703;28;20202;-63
2023/03/02 01:43:41;;;;;;;18.13;12.30;;;;;;;6.57;98.91;100033.44;5075851;28;20246;-63
2023/03/02 01:46:14;;;;;;;17.70;13.10;;;;;;;6.64;99.60;100034.44;5068565;28;20272;-63
2023/03/02 01:48:45;;;;;;;14.23;11.93;;;;;;;6.64;100.00;100034.44;5055406;28;20189;-64
2023/03/02 01:51:15;;;;;;;17.87;12.20;;;;;;;6.63;99.85;100033.63;5055885;28;20266;-63
2023/03/02 01:53:46;;;;;;;17.67;12.00;;;;;;;6.67;99.29;100034.13;5055561;28;20255;-64
2023/03/02 01:56:15;;;;;;;19.40;12.63;;;;;;;6.79;99.03;100027.56;5058639;28;20560;-63
2023/03/02 01:58:42;;;;;;;19.03;13.30;;;;;;;6.64;98.93;100029.16;5055416;28;20281;-63
2023/03/02 02:01:14;;;;;;;19.33;12.00;;;;;;;6.53;100.00;100027.63;5055294;28;20599;-63
2023/03/02 02:03:42;;;;;;;19.17;12.10;;;;;;;6.67;100.00;100020.94;5055099;28;20219;-64
2023/03/02 02:06:16;;;;;;;14.93;12.77;;;;;;;6.79;99.90;100022.28;5061891;28;20243;-63
2023/03/02 02:08:46;;;;;;;17.50;11.43;;;;;;;6.77;99.03;100026.91;5075533;28;20248;-63
2023/03/02 02:11:13;;;;;;;16.27;12.00;;;;;;;6.86;98.51;100029.41;5075280;28;20276;-63
2023/03/02 02:13:40;;;;;;;14.50;11.40;;;;;;;6.91;98.44;100023.66;5075047;28;20192;-63
2023/03/02 02:16:07;;;;;;;21.90;11.13;;;;;;;6.96;97.43;100024.00;5074076;28;20195;-64
2023/03/02 02:18:38;;;;;;;18.33;11.63;;;;;;;7.02;97.51;100028.66;5075016;28;20656;-63
2023/03/02 02:21:06;;;;;;;18.30;11.13;;;;;;;6.96;96.93;100031.94;5075305;28;20245;-63
2023/03/02 02:23:39;;;;;;;14.70;10.33;;;;;;;7.03;97.28;100028.50;5075208;28;20188;-63
2023/03/02 02:26:17;;;;;;;18.67;11.47;;;;;;;7.05;97.01;100023.03;5074404;28;20183;-64
2023/03/02 02:28:50;;;;;;;29.37;11.33;;;;;;;7.10;96.32;100020.78;5075139;28;20187;-63
2023/03/02 02:31:22;;;;;;;17.40;12.10;;;;;;;6.85;96.19;100013.72;5075264;28;20203;-63
2023/03/02 02:33:53;;;;;;;27.27;13.03;;;;;;;6.92;96.98;100014.75;5074732;28;20560;-66
2023/03/02 02:36:23;;;;;;;25.33;13.33;;;;;;;7.00;97.33;100009.50;5035253;28;20220;-63
2023/03/02 02:38:55;;;;;;;20.03;14.30;;;;;;;7.06;95.55;100014.16;5035121;28;20192;-63
2023/03/02 02:41:27;;;;;;;18.27;15.70;;;;;;;7.07;96.70;100007.88;5034940;28;20193;-63
2023/03/02 02:43:54;;;;;;;23.90;14.47;;;;;;;7.02;96.70;99995.13;5050584;28;20231;-63
2023/03/02 02:46:21;;;;;;;19.23;13.83;;;;;;;7.09;96.02;100000.59;5053474;28;20256;-63
2023/03/02 02:48:48;;;;;;;18.53;13.43;;;;;;;6.84;96.26;100004.16;5054038;28;20246;-62
2023/03/02 02:51:20;;;;;;;27.47;13.07;;;;;;;6.95;95.61;100007.34;5054184;28;20575;-63
2023/03/02 02:53:57;;;;;;;21.23;12.50;;;;;;;6.95;95.57;100003.88;5054952;28;20228;-64
2023/03/02 02:56:27;;;;;;;20.23;12.17;;;;;;;7.02;95.13;100012.81;5054257;28;20276;-63
2023/03/02 02:58:56;;;;;;;14.00;11.23;;;;;;;7.05;94.43;100002.75;5054455;28;20723;-63
2023/03/02 03:01:25;;;;;;;15.10;11.20;;;;;;;7.05;94.30;100007.19;5054371;28;20203;-63
2023/03/02 03:03:53;;;;;;;18.13;11.77;;;;;;;7.05;94.17;99996.63;5054462;28;20220;-64
2023/03/02 03:06:24;;;;;;;14.70;10.20;;;;;;;6.99;94.09;99997.28;5054036;28;20197;-64
2023/03/02 03:08:58;;;;;;;16.43;10.50;;;;;;;7.00;94.50;100004.22;5054492;28;20191;-64
2023/03/02 03:11:28;;;;;;;12.60;9.93;;;;;;;7.04;94.82;100016.13;5054182;28;20238;-64
2023/03/02 03:14:05;;;;;;;17.53;10.87;;;;;;;7.07;94.28;100011.31;5062406;28;20635;-64
2023/03/02 03:16:33;;;;;;;13.63;10.63;;;;;;;7.07;94.68;100010.50;5073945;28;20267;-63
2023/03/02 03:19:06;;;;;;;12.40;10.33;;;;;;;7.04;94.90;100000.25;5073870;28;20200;-63
2023/03/02 03:21:33;;;;;;;11.30;10.23;;;;;;;6.89;94.80;100001.84;5071483;28;20188;-63
2023/03/02 03:24:00;;;;;;;11.63;10.13;;;;;;;6.81;95.90;99996.56;5054100;28;20246;-63
2023/03/02 03:26:28;;;;;;;17.13;11.27;;;;;;;6.81;95.66;99993.94;5054020;28;20196;-63
2023/03/02 03:28:56;;;;;;;16.03;11.80;;;;;;;6.73;96.62;99991.28;5053654;28;20197;-63
2023/03/02 03:31:23;;;;;;;15.20;12.00;;;;;;;6.82;96.27;99985.03;5053327;28;20223;-64
2023/03/02 03:33:50;;;;;;;12.37;11.17;;;;;;;6.83;96.24;99986.66;5053912;28;20624;-63
2023/03/02 03:36:17;;;;;;;14.00;11.87;;;;;;;6.88;96.01;99987.84;5053730;28;20197;-63
2023/03/02 03:38:44;;;;;;;13.43;12.03;;;;;;;6.83;96.28;99991.94;5053776;28;20279;-63
2023/03/02 03:41:11;;;;;;;16.60;12.27;;;;;;;6.80;96.23;100001.03;5065228;28;20199;-63
2023/03/02 03:43:39;;;;;;;20.30;12.80;;;;;;;6.78;95.97;99996.88;5058379;28;20621;-63
2023/03/02 03:46:06;;;;;;;14.03;11.70;;;;;;;6.79;96.86;100006.47;5053526;28;20200;-64
2023/03/02 03:48:33;;;;;;;17.17;11.97;;;;;;;6.71;96.50;100001.16;5053825;28;20196;-63
2023/03/02 03:51:00;;;;;;;17.73;13.53;;;;;;;6.80;96.56;100008.09;5053095;28;20224;-64
2023/03/02 03:53:27;;;;;;;19.13;13.07;;;;;;;6.71;97.29;100003.78;5068075;28;20190;-63
2023/03/02 03:55:55;;;;;;;23.50;15.03;;;;;;;6.73;97.23;99999.19;5073373;28;20249;-63
2023/03/02 03:58:23;;;;;;;17.20;13.10;;;;;;;6.66;97.64;100006.88;5064498;28;20228;-62
2023/03/02 04:00:51;;;;;;;16.10;12.87;;;;;;;6.62;97.39;99983.63;5053321;28;20200;-62
2023/03/02 04:03:19;;;;;;;20.63;15.37;;;;;;;6.61;97.88;100008.38;5065169;28;20252;-62
2023/03/02 04:05:46;;;;;;;18.23;14.27;;;;;;;6.57;98.47;99997.28;5072795;28;20199;-62
2023/03/02 04:08:13;;;;;;;24.77;18.67;;;;;;;6.59;98.02;100010.31;5073256;28;20192;-63
2023/03/02 04:10:40;;;;;;;28.07;19.33;;;;;;;6.56;98.67;100010.63;5072636;28;20223;-63
2023/03/02 04:13:07;;;;;;;16.83;15.00;;;;;;;6.49;98.53;100004.34;5062056;28;20200;-63
2023/03/02 04:15:34;;;;;;;23.37;15.63;;;;;;;6.50;98.84;100006.00;5052665;28;20197;-62
2023/03/02 04:18:02;;;;;;;23.57;17.40;;;;;;;6.58;98.95;99984.94;5052996;28;20567;-62
2023/03/02 04:20:29;;;;;;;35.17;18.70;;;;;;;6.71;99.24;99987.94;5052561;28;20676;-63
2023/03/02 04:22:57;;;;;;;37.57;24.80;;;;;;;6.80;98.04;99987.81;5061876;28;20652;-62
2023/03/02 04:25:26;;;;;;;23.10;16.10;;;;;;;6.81;97.48;99983.38;5072626;28;20573;-63
2023/03/02 04:27:54;;;;;;;18.07;14.53;;;;;;;6.81;96.64;99988.66;5072722;28;20201;-62
2023/03/02 04:30:24;;;;;;;20.60;15.27;;;;;;;6.63;97.40;100001.09;5072288;28;20815;-64
2023/03/02 04:32:51;;;;;;;19.83;15.00;;;;;;;6.65;97.20;99999.16;5071459;28;20180;-62
2023/03/02 04:35:19;;;;;;;21.60;15.50;;;;;;;6.54;97.65;100005.53;5072823;28;20253;-62
2023/03/02 04:37:46;;;;;;;18.53;15.30;;;;;;;6.57;98.22;100007.84;5072117;28;20250;-63
2023/03/02 04:40:14;;;;;;;24.30;16.13;;;;;;;6.52;98.17;100004.00;5072239;28;20218;-63
2023/03/02 04:42:43;;;;;;;21.37;15.43;;;;;;;6.45;98.18;100011.75;5052441;28;20192;-63
2023/03/02 04:45:11;;;;;;;18.97;14.80;;;;;;;6.46;98.02;100016.06;5052833;28;20194;-62
2023/03/02 04:47:38;;;;;;;17.20;15.23;;;;;;;6.48;98.90;100029.91;5052495;28;20196;-63
2023/03/02 04:50:05;;;;;;;19.70;15.10;;;;;;;6.44;97.45;100009.25;5052558;28;20194;-63
2023/03/02 04:52:33;;;;;;;21.47;14.83;;;;;;;6.49;97.74;100014.91;5070539;28;20282;-62
2023/03/02 04:55:00;;;;;;;21.07;16.60;;;;;;;6.54;97.82;100025.81;5072324;28;20249;-62
2023/03/02 04:57:27;;;;;;;19.60;15.90;;;;;;;6.59;97.85;100020.88;5071325;28;20191;-63
2023/03/02 04:59:53;;;;;;;18.27;16.33;;;;;;;6.70;97.79;100023.25;5052069;28;20214;-62
2023/03/02 05:02:20;;;;;;;26.40;16.67;;;;;;;6.67;96.60;100028.84;5067052;28;20259;-62
2023/03/02 05:04:47;;;;;;;22.97;16.57;;;;;;;6.69;97.36;100027.69;5072254;28;20252;-63
2023/03/02 05:07:13;;;;;;;22.80;17.00;;;;;;;6.75;97.28;100018.31;5072021;28;20249;-62
2023/03/02 05:09:41;;;;;;;19.23;15.83;;;;;;;6.67;97.11;100023.56;5071447;28;20191;-63
2023/03/02 05:12:08;;;;;;;25.70;16.37;;;;;;;6.73;97.41;100018.47;5071162;28;20222;-63
2023/03/02 05:14:35;;;;;;;21.73;16.43;;;;;;;6.82;97.27;100022.00;5071789;28;20663;-62
2023/03/02 05:17:02;;;;;;;19.90;17.17;;;;;;;6.81;96.92;100025.63;5072017;28;20244;-62
2023/03/02 05:19:28;;;;;;;23.90;16.60;;;;;;;6.84;96.17;100031.41;5072084;28;20188;-62
2023/03/02 05:21:56;;;;;;;26.23;17.00;;;;;;;6.83;96.19;100034.19;5059424;28;20620;-62
2023/03/02 05:24:23;;;;;;;22.87;17.87;;;;;;;6.82;95.45;100041.28;5051714;28;20279;-62
2023/03/02 05:26:51;;;;;;;26.40;19.20;;;;;;;6.87;95.52;100036.38;5051875;28;20269;-63
2023/03/02 05:29:17;;;;;;;25.20;18.33;;;;;;;6.92;94.87;100033.22;5055135;28;20188;-62
2023/03/02 05:31:46;;;;;;;27.57;17.30;;;;;;;6.74;95.31;100041.25;5071828;28;20590;-63
2023/03/02 05:34:16;;;;;;;22.77;17.97;;;;;;;6.70;94.82;100042.53;5067445;28;20184;-64
2023/03/02 05:36:43;;;;;;;21.60;16.87;;;;;;;6.70;95.91;100039.91;5051259;28;20186;-63
2023/03/02 05:39:11;;;;;;;25.97;16.83;;;;;;;6.75;95.80;100047.34;5051359;28;20191;-62
2023/03/02 05:41:39;;;;;;;28.63;19.20;;;;;;;6.80;95.73;100050.34;5051348;28;20193;-62
2023/03/02 05:44:10;;;;;;;29.17;19.57;;;;;;;6.80;95.86;100045.06;5050954;28;20195;-63
2023/03/02 05:46:37;;;;;;;24.67;17.97;;;;;;;6.82;95.46;100043.09;5048615;28;20641;-62
2023/03/02 05:49:04;;;;;;;41.33;22.17;;;;;;;6.87;95.39;100044.28;5050889;28;20580;-61
2023/03/02 05:51:31;;;;;;;27.43;17.83;;;;;;;6.89;94.43;100046.75;5050770;28;20218;-61
2023/03/02 05:53:57;;;;;;;29.57;19.37;;;;;;;6.88;94.66;100050.38;5050940;28;20192;-61
2023/03/02 05:56:24;;;;;;;24.57;17.67;;;;;;;6.93;94.50;100051.56;5051050;28;20201;-62
2023/03/02 05:58:51;;;;;;;34.17;20.30;;;;;;;6.93;94.35;100048.91;5052681;28;20227;-62
2023/03/02 06:01:19;;;;;;;29.03;19.90;;;;;;;6.91;94.82;100058.00;5050678;28;20664;-63
2023/03/02 06:03:46;;;;;;;25.90;18.47;;;;;;;6.98;95.26;100056.38;5048003;28;20188;-61
2023/03/02 06:06:13;;;;;;;34.63;22.97;;;;;;;7.05;94.48;100062.66;5051255;28;20254;-61
2023/03/02 06:08:40;;;;;;;28.00;20.20;;;;;;;7.13;94.76;100052.97;5051159;28;20193;-66
2023/03/02 06:11:08;;;;;;;28.53;18.73;;;;;;;7.19;93.54;100057.59;5051620;28;20227;-66
2023/03/02 06:13:34;;;;;;;26.80;17.20;;;;;;;7.24;93.42;100059.75;5051249;28;20279;-67
2023/03/02 06:16:01;;;;;;;25.03;16.10;;;;;;;7.26;93.66;100057.78;5051935;28;20197;-67
2023/03/02 06:18:29;;;;;;;19.93;16.07;;;;;;;7.10;93.20;100057.75;5071069;28;20683;-66
2023/03/02 06:20:56;;;;;;;26.93;17.00;;;;;;;7.13;93.27;100057.41;5071776;28;20250;-66
2023/03/02 06:23:23;;;;;;;25.97;16.33;;;;;;;7.05;93.09;100054.72;5074763;28;20188;-67
2023/03/02 06:25:49;;;;;;;32.53;18.20;;;;;;;7.25;93.55;100070.16;5074833;28;20733;-75
2023/03/02 06:28:18;;;;;;;22.60;15.03;;;;;;;6.96;92.92;100079.47;5058446;28;20641;-67
2023/03/02 06:30:47;;;;;;;21.90;15.80;;;;;;;7.12;94.03;100082.16;5055009;28;20204;-66
2023/03/02 06:33:14;;;;;;;25.47;16.30;;;;;;;7.18;94.06;100079.72;5054269;28;20587;-66
2023/03/02 06:35:42;;;;;;;26.70;16.37;;;;;;;7.17;93.51;100078.06;5055103;28;20196;-67
2023/03/02 06:38:09;;;;;;;27.53;18.13;;;;;;;7.13;93.26;100076.72;5054678;28;20258;-66
2023/03/02 06:40:35;;;;;;;25.77;17.90;;;;;;;7.18;93.25;100076.25;5054847;28;20192;-65
2023/03/02 06:43:02;;;;;;;24.97;17.63;;;;;;;7.25;94.41;100074.63;5053854;28;20200;-66
2023/03/02 06:45:32;;;;;;;22.53;17.57;;;;;;;7.20;95.08;100083.03;5055103;28;20200;-63
2023/03/02 06:47:59;;;;;;;23.00;16.93;;;;;;;7.17;95.30;100093.06;5054979;28;20199;-60
2023/03/02 06:50:26;;;;;;;27.37;18.30;;;;;;;7.14;95.57;100085.50;5054811;28;20193;-60
2023/03/02 06:52:54;;;;;;;29.23;20.97;;;;;;;7.12;94.94;100090.94;5053816;28;20726;-62
2023/03/02 06:55:20;;;;;;;28.07;18.77;;;;;;;7.26;96.48;100085.03;5054263;28;20185;-61
2023/03/02 06:57:47;;;;;;;29.30;18.23;;;;;;;7.39;95.84;100084.59;5053895;28;20282;-63
2023/03/02 07:00:16;;;;;;;25.27;17.23;;;;;;;7.23;94.55;100081.88;5054368;28;20185;-62
2023/03/02 07:02:43;;;;;;;24.00;17.40;;;;;;;7.00;94.74;100083.44;5053679;28;20560;-62
2023/03/02 07:05:09;;;;;;;23.87;17.83;;;;;;;7.06;95.18;100085.47;5054544;28;20254;-63
2023/03/02 07:07:36;;;;;;;21.80;16.03;;;;;;;7.11;95.42;100096.38;5054060;28;20192;-62
2023/03/02 07:10:05;;;;;;;25.03;17.07;;;;;;;7.05;95.12;100091.72;5054461;28;20196;-62
2023/03/02 07:12:32;;;;;;;32.30;18.87;;;;;;;6.93;96.06;100090.34;5055734;28;20219;-62
2023/03/02 07:14:58;;;;;;;29.27;16.80;;;;;;;6.99;95.79;100076.50;5038446;28;20742;-64
2023/03/02 07:17:25;;;;;;;31.60;20.27;;;;;;;7.10;95.69;100078.88;5053108;28;20192;-64
2023/03/02 07:19:52;;;;;;;37.53;21.90;;;;;;;7.13;95.97;100082.00;5053817;28;20643;-62
2023/03/02 07:22:19;;;;;;;34.17;19.33;;;;;;;6.98;95.88;100085.44;5054621;28;20188;-65
2023/03/02 07:24:45;;;;;;;31.60;19.90;;;;;;;6.99;96.42;100095.00;5060299;28;20192;-65
2023/03/02 07:27:13;;;;;;;35.87;23.40;;;;;;;7.13;96.55;100094.38;5058789;28;20195;-62
2023/03/02 07:29:40;;;;;;;37.73;24.60;;;;;;;7.08;95.46;100086.97;5046059;28;20192;-64
2023/03/02 07:32:07;;;;;;;40.30;23.17;;;;;;;6.82;96.48;100091.44;5048696;28;20215;-65
2023/03/02 07:34:33;;;;;;;32.57;21.70;;;;;;;7.00;96.94;100088.72;5064440;28;20218;-63
2023/03/02 07:37:00;;;;;;;43.23;24.83;;;;;;;7.12;95.80;100092.75;5052982;28;20188;-63
2023/03/02 07:39:27;;;;;;;31.80;19.07;;;;;;;7.03;95.69;100101.63;5053294;28;20188;-65
2023/03/02 07:41:58;;;;;;;42.47;22.83;;;;;;;7.03;95.95;100101.63;5053762;28;20254;-65
2023/03/02 07:44:26;;;;;;;50.83;23.33;;;;;;;7.05;95.62;100097.00;5053338;28;20184;-63
2023/03/02 07:46:53;;;;;;;38.17;20.33;;;;;;;7.10;96.05;100105.28;5050364;28;20660;-63
2023/03/02 07:49:20;;;;;;;35.57;22.90;;;;;;;7.16;96.36;100099.34;5054491;28;20196;-65
2023/03/02 07:51:47;;;;;;;42.30;22.37;;;;;;;7.15;95.83;100100.34;5065213;28;20272;-64
2023/03/02 07:54:13;;;;;;;38.37;22.30;;;;;;;7.16;95.54;100099.34;5047031;28;20206;-63
2023/03/02 07:56:41;;;;;;;37.50;19.20;;;;;;;7.22;95.91;100107.47;5044978;28;20730;-63
2023/03/02 07:59:07;;;;;;;39.73;18.17;;;;;;;7.26;95.84;100100.06;5059385;28;20219;-64
2023/03/02 08:01:35;;;;;;;32.63;19.43;;;;;;;7.30;95.44;100101.38;5054085;28;20196;-63
2023/03/02 08:04:02;;;;;;;34.97;22.13;;;;;;;7.37;95.71;100100.59;5054425;28;20741;-63
2023/03/02 08:06:29;;;;;;;24.83;16.33;;;;;;;7.14;94.82;100093.41;5061063;28;20600;-63
2023/03/02 08:08:55;;;;;;;33.50;17.27;;;;;;;7.12;95.02;100109.44;5067235;28;20188;-64
2023/03/02 08:11:26;;;;;;;26.20;17.60;;;;;;;7.14;95.66;100111.91;5057150;28;20200;-62
2023/03/02 08:13:52;;;;;;;24.83;16.13;;;;;;;7.17;95.15;100106.28;5052626;28;20220;-63
2023/03/02 08:16:20;;;;;;;35.13;19.87;;;;;;;7.24;94.89;100099.38;5053875;28;20243;-62
2023/03/02 08:18:48;;;;;;;26.97;17.83;;;;;;;7.26;94.55;100094.78;5051169;28;20201;-64
2023/03/02 08:21:17;;;;;;;23.47;16.87;;;;;;;7.28;94.49;100106.84;5048344;28;20623;-63
2023/03/02 08:23:44;;;;;;;30.00;20.17;;;;;;;7.24;94.41;100094.09;5052163;28;20204;-63
2023/03/02 08:26:11;;;;;;;28.50;17.60;;;;;;;7.23;94.70;100087.97;5052116;28;20672;-71
2023/03/02 08:28:39;;;;;;;29.93;19.83;;;;;;;7.17;94.40;100079.88;5051073;28;20196;-71
2023/03/02 08:31:07;;;;;;;36.47;20.07;;;;;;;7.31;95.06;100088.00;5058764;28;20618;-71
2023/03/02 08:33:34;;;;;;;33.23;19.43;;;;;;;7.42;95.14;100087.72;5072606;28;20303;-70
2023/03/02 08:36:05;;;;;;;41.00;26.77;;;;;;;7.40;93.17;100088.88;5067052;28;20254;-71
2023/03/02 08:38:32;;;;;;;36.10;24.03;;;;;;;7.44;93.82;100087.56;5052025;28;20212;-71
2023/03/02 08:41:03;;;;;;;38.77;27.23;;;;;;;7.55;93.77;100089.91;5052276;28;20350;-71
2023/03/02 08:43:30;;;;;;;34.80;23.47;;;;;;;7.54;93.07;100093.50;5052328;28;20693;-70
2023/03/02 08:45:57;;;;;;;32.83;19.03;;;;;;;7.63;93.85;100100.50;5053502;28;20188;-71
2023/03/02 08:48:25;;;;;;;26.40;16.70;;;;;;;7.57;93.66;100087.91;5039745;28;20193;-71
2023/03/02 08:50:57;;;;;;;23.87;16.67;;;;;;;7.61;93.71;100087.44;5042707;28;20218;-70
2023/03/02 08:53:25;;;;;;;25.97;16.87;;;;;;;7.64;94.08;100091.56;5049676;28;20215;-69
2023/03/02 08:55:52;;;;;;;27.13;17.80;;;;;;;7.74;93.99;100094.88;5052075;28;20188;-70
2023/03/02 08:58:19;;;;;;;27.83;17.20;;;;;;;7.78;93.15;100086.47;5052617;28;20710;-70
2023/03/02 09:00:46;;;;;;;27.70;19.67;;;;;;;7.88;93.39;100091.59;5051277;28;20660;-69
2023/03/02 09:03:12;;;;;;;22.33;17.73;;;;;;;7.78;92.55;100090.91;5050523;28;20219;-71
2023/03/02 09:05:39;;;;;;;27.03;17.67;;;;;;;7.75;93.16;100084.13;5051415;28;20660;-70
2023/03/02 09:08:07;;;;;;;23.17;17.47;;;;;;;7.85;93.59;100086.63;5051999;28;20564;-71
2023/03/02 09:10:35;;;;;;;26.60;19.33;;;;;;;7.65;93.97;100086.13;5051649;28;20188;-71
2023/03/02 09:13:02;;;;;;;30.00;19.47;;;;;;;7.72;94.55;100086.31;5048729;28;20606;-69
2023/03/02 09:15:29;;;;;;;23.80;16.47;;;;;;;7.79;93.98;100081.97;5051579;28;20238;-70
2023/03/02 09:17:55;;;;;;;25.07;17.20;;;;;;;7.78;94.69;100082.97;5050890;28;20204;-69
2023/03/02 09:20:22;;;;;;;25.33;17.90;;;;;;;7.86;94.16;100088.28;5048246;28;20620;-70
2023/03/02 09:22:49;;;;;;;30.80;21.20;;;;;;;7.89;94.75;100086.16;5031318;28;20193;-72
2023/03/02 09:25:17;;;;;;;27.10;22.47;;;;;;;8.08;94.22;100077.88;5043810;28;20502;-70
2023/03/02 09:27:46;;;;;;;28.47;21.40;;;;;;;8.34;92.86;100077.72;5053321;28;20538;-69
2023/03/02 09:30:14;;;;;;;25.40;17.47;;;;;;;8.16;91.97;100079.69;5071000;28;20667;-69
2023/03/02 09:32:41;;;;;;;27.87;18.07;;;;;;;8.20;93.75;100083.66;5070404;28;20572;-69
2023/03/02 09:35:08;;;;;;;24.73;18.37;;;;;;;8.18;92.59;100073.25;5059912;28;20246;-70
2023/03/02 09:37:37;;;;;;;29.03;18.13;;;;;;;8.15;93.13;100083.31;5051937;28;20196;-70
2023/03/02 09:40:05;;;;;;;21.77;17.73;;;;;;;8.20;92.79;100078.34;5058716;28;20233;-69
2023/03/02 09:43:05;;;;;;;23.03;16.97;;;;;;;8.30;93.30;100076.41;5070056;28;20265;-68
2023/03/02 09:45:49;;;;;;;24.50;17.63;;;;;;;8.32;92.51;100069.97;5057189;28;20188;-70
2023/03/02 09:48:27;;;;;;;27.13;17.57;;;;;;;8.14;92.76;100061.34;5051469;28;20204;-70
2023/03/02 09:51:07;;;;;;;21.80;17.30;;;;;;;8.24;92.91;100061.19;5057773;28;20234;-71
2023/03/02 09:53:46;;;;;;;23.23;16.93;;;;;;;8.29;93.22;100059.69;5071044;28;20211;-70
2023/03/02 09:56:17;;;;;;;21.63;17.03;;;;;;;8.31;93.44;100057.72;5072247;28;20613;-68
2023/03/02 09:58:52;;;;;;;20.47;16.33;;;;;;;8.27;92.48;100061.69;5065533;28;20242;-68
2023/03/02 10:01:35;;;;;;;19.77;15.30;;;;;;;7.77;92.00;100012.59;5066195;28;20175;-68
2023/03/02 10:04:13;;;;;;;22.83;16.57;;;;;;;8.09;92.77;100054.91;5075487;28;20291;-66
2023/03/02 10:06:39;;;;;;;21.70;15.53;;;;;;;8.15;91.63;100051.56;5074953;28;20176;-66
2023/03/02 10:09:08;;;;;;;18.40;15.43;;;;;;;8.15;91.97;100051.56;5074377;28;20241;-70
2023/03/02 10:11:44;;;;;;;19.97;14.90;;;;;;;8.25;91.53;100052.28;5075386;28;20191;-68
2023/03/02 10:14:18;;;;;;;23.43;15.10;;;;;;;8.36;91.03;100050.09;5075494;28;20211;-69
2023/03/02 10:16:51;;;;;;;28.23;17.40;;;;;;;8.35;90.18;100050.25;5074260;28;20184;-70
2023/03/02 10:19:23;;;;;;;29.33;20.27;;;;;;;8.18;91.08;100054.75;5063182;28;20264;-70
2023/03/02 10:21:57;;;;;;;22.27;14.47;;;;;;;8.17;91.60;100054.91;5052760;28;20204;-69
2023/03/02 10:24:30;;;;;;;32.20;19.17;;;;;;;8.23;91.83;100049.78;5053099;28;20197;-70
2023/03/02 10:27:01;;;;;;;49.57;24.80;;;;;;;8.10;92.36;100048.59;5061383;28;20714;-69
2023/03/02 10:29:49;;;;;;;24.80;16.93;;;;;;;8.03;92.17;100050.25;5054658;28;20238;-69
2023/03/02 10:32:20;;;;;;;34.77;21.20;;;;;;;8.14;93.34;100045.47;5054845;28;20243;-69
2023/03/02 10:34:48;;;;;;;29.50;21.60;;;;;;;8.17;93.42;100041.66;5055192;28;20247;-71
2023/03/02 10:37:17;;;;;;;25.83;18.33;;;;;;;8.06;92.81;100036.72;5066710;28;20195;-69
2023/03/02 10:39:44;;;;;;;27.40;19.53;;;;;;;8.07;92.93;100043.63;5068921;28;20321;-70
2023/03/02 10:42:16;;;;;;;27.57;20.10;;;;;;;8.10;93.20;100033.56;5033580;28;20255;-69
2023/03/02 10:44:50;;;;;;;31.60;21.37;;;;;;;8.17;92.93;100029.25;5032988;28;20194;-71
2023/03/02 10:47:24;;;;;;;23.23;18.07;;;;;;;8.22;92.34;100020.84;5043373;28;20619;-70
2023/03/02 10:49:52;;;;;;;33.73;21.20;;;;;;;8.21;91.75;100022.66;5034544;28;20181;-70
2023/03/02 10:52:23;;;;;;;28.10;19.80;;;;;;;8.24;92.20;100019.69;5034050;28;20243;-71
2023/03/02 10:55:01;;;;;;;26.83;20.43;;;;;;;8.25;91.71;100026.63;5033624;28;20275;-71
2023/03/02 10:57:36;;;;;;;23.03;17.67;;;;;;;8.11;91.69;100003.47;5060207;28;20249;-71
2023/03/02 11:00:15;;;;;;;33.33;21.90;;;;;;;8.03;92.20;99990.25;5054650;28;20188;-71
2023/03/02 11:02:51;;;;;;;45.70;22.37;;;;;;;8.11;92.14;99999.97;5038227;28;20266;-70
2023/03/02 11:05:30;;;;;;;31.23;20.67;;;;;;;8.11;92.15;100013.22;5034609;28;20322;-70
2023/03/02 11:07:58;;;;;;;25.77;19.07;;;;;;;8.16;92.40;100014.38;5050675;28;20188;-71
2023/03/02 11:10:27;;;;;;;29.47;20.00;;;;;;;8.18;91.73;100016.84;5054304;28;20790;-71
2023/03/02 11:12:55;;;;;;;27.70;20.00;;;;;;;8.07;92.11;100017.19;5054438;28;20216;-71
2023/03/02 11:15:27;;;;;;;26.43;19.43;;;;;;;7.96;92.39;100014.91;5063171;28;20196;-70
2023/03/02 11:18:07;;;;;;;29.40;19.73;;;;;;;7.96;92.43;100014.91;5074362;28;20184;-71
2023/03/02 11:20:38;;;;;;;25.93;18.50;;;;;;;7.91;93.51;100012.75;5060587;28;20615;-70
2023/03/02 11:23:21;;;;;;;27.33;19.83;;;;;;;7.97;93.03;100011.25;5063986;28;20191;-70